Terminal Aerodrome Forecast
Issued by NWS Jackson, MS

Home | Current Version | Previous Version | Text Only | Print | Product List | Glossary On
Versions: 1 2 3 4 5 6 7 8 9 10 11 12 13 14 15 16 17 18
000
FTUS44 KJAN 210500 RRA
TAFHBG
TAF
KHBG 210548Z 2106/2206 02003KT P6SM BKN020 BKN250
     FM211100 02003KT 5SM BR OVC015
     FM211630 06005KT P6SM SCT020 BKN250
     FM220000 09003KT P6SM BKN030 BKN150=

USA.gov is the U.S. government's official web portal to all federal, state and local government web resources and services.